sensor_id;sensor_type;location;lat;lon;timestamp;temperature;humidity
49579;DHT22;35483;50.828;3.228;2023-02-28T00:01:24;2.10;89.90
49579;DHT22;35483;50.828;3.228;2023-02-28T00:03:50;2.10;89.90
49579;DHT22;35483;50.828;3.228;2023-02-28T00:06:16;2.10;90.00
49579;DHT22;35483;50.828;3.228;2023-02-28T00:08:42;2.10;90.00
49579;DHT22;35483;50.828;3.228;2023-02-28T00:11:10;2.10;90.00
49579;DHT22;35483;50.828;3.228;2023-02-28T00:13:39;2.10;90.00
49579;DHT22;35483;50.828;3.228;2023-02-28T00:16:07;2.00;90.00
49579;DHT22;35483;50.828;3.228;2023-02-28T00:18:33;2.00;90.20
49579;DHT22;35483;50.828;3.228;2023-02-28T00:21:00;2.00;89.80
49579;DHT22;35483;50.828;3.228;2023-02-28T00:23:26;2.00;90.00
49579;DHT22;35483;50.828;3.228;2023-02-28T00:25:52;2.00;90.10
49579;DHT22;35483;50.828;3.228;2023-02-28T00:28:18;2.00;90.00
49579;DHT22;35483;50.828;3.228;2023-02-28T00:30:44;1.90;90.20
49579;DHT22;35483;50.828;3.228;2023-02-28T00:33:09;1.90;90.00
49579;DHT22;35483;50.828;3.228;2023-02-28T00:35:35;1.90;90.00
49579;DHT22;35483;50.828;3.228;2023-02-28T00:38:01;1.90;90.20
49579;DHT22;35483;50.828;3.228;2023-02-28T00:40:27;1.80;90.10
49579;DHT22;35483;50.828;3.228;2023-02-28T00:42:53;1.80;90.20
49579;DHT22;35483;50.828;3.228;2023-02-28T00:45:19;1.80;90.30
49579;DHT22;35483;50.828;3.228;2023-02-28T00:47:44;1.80;90.30
49579;DHT22;35483;50.828;3.228;2023-02-28T00:50:12;1.80;90.20
49579;DHT22;35483;50.828;3.228;2023-02-28T00:52:37;1.80;90.20
49579;DHT22;35483;50.828;3.228;2023-02-28T00:55:04;1.70;90.20
49579;DHT22;35483;50.828;3.228;2023-02-28T00:57:32;1.70;90.20
49579;DHT22;35483;50.828;3.228;2023-02-28T01:00:01;1.80;90.40
49579;DHT22;35483;50.828;3.228;2023-02-28T01:02:30;1.70;90.20
49579;DHT22;35483;50.828;3.228;2023-02-28T01:04:59;1.80;90.20
49579;DHT22;35483;50.828;3.228;2023-02-28T01:07:25;1.70;90.20
49579;DHT22;35483;50.828;3.228;2023-02-28T01:09:51;1.70;90.20
49579;DHT22;35483;50.828;3.228;2023-02-28T01:12:16;1.70;90.30
49579;DHT22;35483;50.828;3.228;2023-02-28T01:14:43;1.70;90.40
49579;DHT22;35483;50.828;3.228;2023-02-28T01:17:12;1.60;90.20
49579;DHT22;35483;50.828;3.228;2023-02-28T01:19:38;1.60;90.40
49579;DHT22;35483;50.828;3.228;2023-02-28T01:22:05;1.60;90.50
49579;DHT22;35483;50.828;3.228;2023-02-28T01:24:34;1.60;90.40
49579;DHT22;35483;50.828;3.228;2023-02-28T01:27:00;1.60;90.50
49579;DHT22;35483;50.828;3.228;2023-02-28T01:29:26;1.60;90.40
49579;DHT22;35483;50.828;3.228;2023-02-28T01:31:52;1.60;90.40
49579;DHT22;35483;50.828;3.228;2023-02-28T01:34:17;1.50;90.50
49579;DHT22;35483;50.828;3.228;2023-02-28T01:36:44;1.50;90.80
49579;DHT22;35483;50.828;3.228;2023-02-28T01:39:11;1.50;90.70
49579;DHT22;35483;50.828;3.228;2023-02-28T01:41:38;1.50;90.60
49579;DHT22;35483;50.828;3.228;2023-02-28T01:44:53;1.50;90.40
49579;DHT22;35483;50.828;3.228;2023-02-28T01:46:52;1.50;90.50
49579;DHT22;35483;50.828;3.228;2023-02-28T01:49:18;1.50;90.40
49579;DHT22;35483;50.828;3.228;2023-02-28T01:51:50;1.50;90.70
49579;DHT22;35483;50.828;3.228;2023-02-28T01:54:26;1.60;90.60
49579;DHT22;35483;50.828;3.228;2023-02-28T01:56:54;1.50;90.70
49579;DHT22;35483;50.828;3.228;2023-02-28T01:59:46;1.40;92.40
49579;DHT22;35483;50.828;3.228;2023-02-28T02:02:15;1.50;90.50
49579;DHT22;35483;50.828;3.228;2023-02-28T02:04:57;1.50;90.50
49579;DHT22;35483;50.828;3.228;2023-02-28T02:07:25;1.50;90.80
49579;DHT22;35483;50.828;3.228;2023-02-28T02:10:10;1.50;90.80
49579;DHT22;35483;50.828;3.228;2023-02-28T02:16:00;1.50;90.70
49579;DHT22;35483;50.828;3.228;2023-02-28T02:27:23;1.40;90.90
49579;DHT22;35483;50.828;3.228;2023-02-28T02:29:57;1.40;91.00
49579;DHT22;35483;50.828;3.228;2023-02-28T02:37:50;1.30;91.10
49579;DHT22;35483;50.828;3.228;2023-02-28T02:40:23;1.30;91.10
49579;DHT22;35483;50.828;3.228;2023-02-28T02:42:55;1.30;91.20
49579;DHT22;35483;50.828;3.228;2023-02-28T02:45:34;1.30;91.10
49579;DHT22;35483;50.828;3.228;2023-02-28T02:48:06;1.30;90.90
49579;DHT22;35483;50.828;3.228;2023-02-28T02:50:43;1.30;91.10
49579;DHT22;35483;50.828;3.228;2023-02-28T02:53:12;1.30;91.00
49579;DHT22;35483;50.828;3.228;2023-02-28T02:55:45;1.30;91.00
49579;DHT22;35483;50.828;3.228;2023-02-28T02:58:15;1.30;91.10
49579;DHT22;35483;50.828;3.228;2023-02-28T03:00:47;1.30;91.10
49579;DHT22;35483;50.828;3.228;2023-02-28T03:03:14;1.30;91.20
49579;DHT22;35483;50.828;3.228;2023-02-28T03:05:48;1.20;91.00
49579;DHT22;35483;50.828;3.228;2023-02-28T03:08:14;1.30;91.10
49579;DHT22;35483;50.828;3.228;2023-02-28T03:10:42;1.30;91.20
49579;DHT22;35483;50.828;3.228;2023-02-28T03:27:24;1.20;91.70
49579;DHT22;35483;50.828;3.228;2023-02-28T03:30:17;1.20;91.70
49579;DHT22;35483;50.828;3.228;2023-02-28T03:35:21;1.20;91.30
49579;DHT22;35483;50.828;3.228;2023-02-28T03:37:52;1.20;91.30
49579;DHT22;35483;50.828;3.228;2023-02-28T03:40:25;1.20;91.20
49579;DHT22;35483;50.828;3.228;2023-02-28T03:42:57;1.20;91.50
49579;DHT22;35483;50.828;3.228;2023-02-28T03:45:26;1.10;92.10
49579;DHT22;35483;50.828;3.228;2023-02-28T03:48:19;1.20;91.70
49579;DHT22;35483;50.828;3.228;2023-02-28T03:50:49;1.20;91.80
49579;DHT22;35483;50.828;3.228;2023-02-28T03:53:27;1.20;92.00
49579;DHT22;35483;50.828;3.228;2023-02-28T04:01:40;1.20;91.80
49579;DHT22;35483;50.828;3.228;2023-02-28T04:04:08;1.20;92.30
49579;DHT22;35483;50.828;3.228;2023-02-28T04:06:35;1.20;92.00
49579;DHT22;35483;50.828;3.228;2023-02-28T04:09:03;1.20;91.80
49579;DHT22;35483;50.828;3.228;2023-02-28T04:11:38;1.20;92.10
49579;DHT22;35483;50.828;3.228;2023-02-28T04:14:06;1.20;92.10
49579;DHT22;35483;50.828;3.228;2023-02-28T04:16:33;1.20;92.80
49579;DHT22;35483;50.828;3.228;2023-02-28T04:18:59;1.20;92.00
49579;DHT22;35483;50.828;3.228;2023-02-28T04:21:34;1.20;92.00
49579;DHT22;35483;50.828;3.228;2023-02-28T04:24:00;1.30;92.30
49579;DHT22;35483;50.828;3.228;2023-02-28T04:26:34;1.30;92.80
49579;DHT22;35483;50.828;3.228;2023-02-28T04:29:01;1.30;92.50
49579;DHT22;35483;50.828;3.228;2023-02-28T04:31:27;1.30;92.90
49579;DHT22;35483;50.828;3.228;2023-02-28T04:33:52;1.40;92.20
49579;DHT22;35483;50.828;3.228;2023-02-28T04:36:18;1.50;92.50
49579;DHT22;35483;50.828;3.228;2023-02-28T04:38:44;1.60;92.00
49579;DHT22;35483;50.828;3.228;2023-02-28T04:41:11;1.60;92.30
49579;DHT22;35483;50.828;3.228;2023-02-28T04:43:37;1.60;92.10
49579;DHT22;35483;50.828;3.228;2023-02-28T04:46:04;1.60;92.50
49579;DHT22;35483;50.828;3.228;2023-02-28T04:48:32;1.60;92.40
49579;DHT22;35483;50.828;3.228;2023-02-28T04:51:10;1.60;92.80
49579;DHT22;35483;50.828;3.228;2023-02-28T04:53:38;1.80;92.60
49579;DHT22;35483;50.828;3.228;2023-02-28T04:56:05;1.80;92.20
49579;DHT22;35483;50.828;3.228;2023-02-28T04:58:31;1.90;91.90
49579;DHT22;35483;50.828;3.228;2023-02-28T05:01:14;2.00;92.30
49579;DHT22;35483;50.828;3.228;2023-02-28T05:03:42;2.10;92.00
49579;DHT22;35483;50.828;3.228;2023-02-28T05:06:08;2.20;91.80
49579;DHT22;35483;50.828;3.228;2023-02-28T05:08:34;2.30;92.20
49579;DHT22;35483;50.828;3.228;2023-02-28T05:11:01;2.40;91.90
49579;DHT22;35483;50.828;3.228;2023-02-28T05:13:27;2.40;92.20
49579;DHT22;35483;50.828;3.228;2023-02-28T05:15:53;2.50;92.00
49579;DHT22;35483;50.828;3.228;2023-02-28T05:18:19;2.50;92.00
49579;DHT22;35483;50.828;3.228;2023-02-28T05:20:46;2.50;92.00
49579;DHT22;35483;50.828;3.228;2023-02-28T05:23:13;2.60;91.80
49579;DHT22;35483;50.828;3.228;2023-02-28T05:25:42;2.60;92.10
49579;DHT22;35483;50.828;3.228;2023-02-28T05:28:08;2.70;92.00
49579;DHT22;35483;50.828;3.228;2023-02-28T05:30:35;2.70;92.00
49579;DHT22;35483;50.828;3.228;2023-02-28T05:33:03;2.70;91.70
49579;DHT22;35483;50.828;3.228;2023-02-28T05:35:29;2.80;91.90
49579;DHT22;35483;50.828;3.228;2023-02-28T05:37:54;2.80;92.10
49579;DHT22;35483;50.828;3.228;2023-02-28T05:40:23;2.80;91.70
49579;DHT22;35483;50.828;3.228;2023-02-28T05:42:50;2.90;91.70
49579;DHT22;35483;50.828;3.228;2023-02-28T05:45:17;2.90;91.70
49579;DHT22;35483;50.828;3.228;2023-02-28T05:47:43;2.90;91.90
49579;DHT22;35483;50.828;3.228;2023-02-28T05:50:09;2.90;92.10
49579;DHT22;35483;50.828;3.228;2023-02-28T05:52:36;2.90;91.80
49579;DHT22;35483;50.828;3.228;2023-02-28T05:55:03;3.00;91.80
49579;DHT22;35483;50.828;3.228;2023-02-28T05:57:29;2.90;91.90
49579;DHT22;35483;50.828;3.228;2023-02-28T05:59:56;2.90;92.00
49579;DHT22;35483;50.828;3.228;2023-02-28T06:02:24;3.00;91.80
49579;DHT22;35483;50.828;3.228;2023-02-28T06:04:53;3.00;91.70
49579;DHT22;35483;50.828;3.228;2023-02-28T06:07:19;3.00;91.80
49579;DHT22;35483;50.828;3.228;2023-02-28T06:09:44;3.00;91.60
49579;DHT22;35483;50.828;3.228;2023-02-28T06:12:10;3.00;92.10
49579;DHT22;35483;50.828;3.228;2023-02-28T06:14:36;3.00;92.00
49579;DHT22;35483;50.828;3.228;2023-02-28T06:17:03;3.00;91.90
49579;DHT22;35483;50.828;3.228;2023-02-28T06:19:28;3.10;91.70
49579;DHT22;35483;50.828;3.228;2023-02-28T06:21:56;3.10;91.70
49579;DHT22;35483;50.828;3.228;2023-02-28T06:24:25;3.10;92.30
49579;DHT22;35483;50.828;3.228;2023-02-28T06:26:54;3.10;92.00
49579;DHT22;35483;50.828;3.228;2023-02-28T06:29:20;3.20;91.90
49579;DHT22;35483;50.828;3.228;2023-02-28T06:31:46;3.20;91.90
49579;DHT22;35483;50.828;3.228;2023-02-28T06:34:13;3.20;92.10
49579;DHT22;35483;50.828;3.228;2023-02-28T06:36:40;3.20;92.00
49579;DHT22;35483;50.828;3.228;2023-02-28T06:39:07;3.20;92.00
49579;DHT22;35483;50.828;3.228;2023-02-28T06:41:34;3.20;92.40
49579;DHT22;35483;50.828;3.228;2023-02-28T06:44:17;3.30;92.10
49579;DHT22;35483;50.828;3.228;2023-02-28T06:46:44;3.30;92.30
49579;DHT22;35483;50.828;3.228;2023-02-28T06:49:10;3.30;92.10
49579;DHT22;35483;50.828;3.228;2023-02-28T06:51:38;3.30;92.00
49579;DHT22;35483;50.828;3.228;2023-02-28T06:54:05;3.40;91.90
49579;DHT22;35483;50.828;3.228;2023-02-28T06:56:32;3.40;91.80
49579;DHT22;35483;50.828;3.228;2023-02-28T06:58:58;3.40;92.10
49579;DHT22;35483;50.828;3.228;2023-02-28T07:01:24;3.40;92.10
49579;DHT22;35483;50.828;3.228;2023-02-28T07:03:50;3.50;92.00
49579;DHT22;35483;50.828;3.228;2023-02-28T07:06:18;3.50;92.20
49579;DHT22;35483;50.828;3.228;2023-02-28T07:08:44;3.50;92.10
49579;DHT22;35483;50.828;3.228;2023-02-28T07:11:10;3.60;92.10
49579;DHT22;35483;50.828;3.228;2023-02-28T07:13:36;3.60;91.80
49579;DHT22;35483;50.828;3.228;2023-02-28T07:16:04;3.60;91.80
49579;DHT22;35483;50.828;3.228;2023-02-28T07:18:30;3.60;92.50
49579;DHT22;35483;50.828;3.228;2023-02-28T07:20:57;3.70;92.00
49579;DHT22;35483;50.828;3.228;2023-02-28T07:23:23;3.70;91.80
49579;DHT22;35483;50.828;3.228;2023-02-28T07:25:50;3.80;91.90
49579;DHT22;35483;50.828;3.228;2023-02-28T07:28:18;3.80;91.90
49579;DHT22;35483;50.828;3.228;2023-02-28T07:30:44;3.90;91.80
49579;DHT22;35483;50.828;3.228;2023-02-28T07:33:09;3.90;91.70
49579;DHT22;35483;50.828;3.228;2023-02-28T07:35:35;4.00;91.90
49579;DHT22;35483;50.828;3.228;2023-02-28T07:38:01;4.10;91.80
49579;DHT22;35483;50.828;3.228;2023-02-28T07:40:28;4.10;91.40
49579;DHT22;35483;50.828;3.228;2023-02-28T07:42:54;4.10;91.80
49579;DHT22;35483;50.828;3.228;2023-02-28T07:45:21;4.20;91.90
49579;DHT22;35483;50.828;3.228;2023-02-28T07:47:47;4.30;91.80
49579;DHT22;35483;50.828;3.228;2023-02-28T07:50:14;4.30;91.80
49579;DHT22;35483;50.828;3.228;2023-02-28T07:52:40;4.40;91.50
49579;DHT22;35483;50.828;3.228;2023-02-28T07:55:08;4.40;91.80
49579;DHT22;35483;50.828;3.228;2023-02-28T07:57:34;4.40;91.50
49579;DHT22;35483;50.828;3.228;2023-02-28T08:00:01;4.50;91.70
49579;DHT22;35483;50.828;3.228;2023-02-28T08:02:26;4.50;91.60
49579;DHT22;35483;50.828;3.228;2023-02-28T08:04:52;4.60;91.60
49579;DHT22;35483;50.828;3.228;2023-02-28T08:07:18;4.70;91.40
49579;DHT22;35483;50.828;3.228;2023-02-28T08:09:47;4.80;91.30
49579;DHT22;35483;50.828;3.228;2023-02-28T08:12:12;4.80;91.40
49579;DHT22;35483;50.828;3.228;2023-02-28T08:14:38;4.80;91.50
49579;DHT22;35483;50.828;3.228;2023-02-28T08:17:07;4.90;91.40
49579;DHT22;35483;50.828;3.228;2023-02-28T08:19:32;4.90;91.30
49579;DHT22;35483;50.828;3.228;2023-02-28T08:21:58;5.00;91.20
49579;DHT22;35483;50.828;3.228;2023-02-28T08:24:24;5.10;91.10
49579;DHT22;35483;50.828;3.228;2023-02-28T08:26:49;5.10;91.10
49579;DHT22;35483;50.828;3.228;2023-02-28T08:29:15;5.10;91.20
49579;DHT22;35483;50.828;3.228;2023-02-28T08:31:42;5.20;91.20
49579;DHT22;35483;50.828;3.228;2023-02-28T08:34:09;5.20;91.20
49579;DHT22;35483;50.828;3.228;2023-02-28T08:36:39;5.10;91.00
49579;DHT22;35483;50.828;3.228;2023-02-28T08:39:05;5.10;91.10
49579;DHT22;35483;50.828;3.228;2023-02-28T08:41:37;5.10;91.00
49579;DHT22;35483;50.828;3.228;2023-02-28T08:44:03;5.20;90.90
49579;DHT22;35483;50.828;3.228;2023-02-28T08:46:29;5.20;90.80
49579;DHT22;35483;50.828;3.228;2023-02-28T08:48:56;5.20;90.80
49579;DHT22;35483;50.828;3.228;2023-02-28T08:51:26;5.20;90.80
49579;DHT22;35483;50.828;3.228;2023-02-28T08:53:55;5.10;90.60
49579;DHT22;35483;50.828;3.228;2023-02-28T08:56:21;5.20;90.60
49579;DHT22;35483;50.828;3.228;2023-02-28T08:58:48;5.30;90.70
49579;DHT22;35483;50.828;3.228;2023-02-28T09:01:19;5.30;90.50
49579;DHT22;35483;50.828;3.228;2023-02-28T09:03:47;5.40;90.20
49579;DHT22;35483;50.828;3.228;2023-02-28T09:06:15;5.30;90.50
49579;DHT22;35483;50.828;3.228;2023-02-28T09:08:43;5.40;90.50
49579;DHT22;35483;50.828;3.228;2023-02-28T09:11:12;5.40;90.20
49579;DHT22;35483;50.828;3.228;2023-02-28T09:13:39;5.40;90.20
49579;DHT22;35483;50.828;3.228;2023-02-28T09:16:08;5.30;90.10
49579;DHT22;35483;50.828;3.228;2023-02-28T09:18:35;5.20;90.40
49579;DHT22;35483;50.828;3.228;2023-02-28T09:21:05;5.20;90.50
49579;DHT22;35483;50.828;3.228;2023-02-28T09:23:31;5.20;90.40
49579;DHT22;35483;50.828;3.228;2023-02-28T09:25:58;5.10;90.70
49579;DHT22;35483;50.828;3.228;2023-02-28T09:28:24;5.10;90.80
49579;DHT22;35483;50.828;3.228;2023-02-28T09:30:52;5.10;90.70
49579;DHT22;35483;50.828;3.228;2023-02-28T09:33:19;5.10;90.70
49579;DHT22;35483;50.828;3.228;2023-02-28T09:35:49;5.10;90.50
49579;DHT22;35483;50.828;3.228;2023-02-28T09:38:15;5.20;90.50
49579;DHT22;35483;50.828;3.228;2023-02-28T09:40:56;5.20;90.50
49579;DHT22;35483;50.828;3.228;2023-02-28T09:43:23;5.30;90.20
49579;DHT22;35483;50.828;3.228;2023-02-28T09:46:06;5.30;90.50
49579;DHT22;35483;50.828;3.228;2023-02-28T09:48:40;5.40;90.50
49579;DHT22;35483;50.828;3.228;2023-02-28T09:54:00;5.50;90.30
49579;DHT22;35483;50.828;3.228;2023-02-28T09:56:33;5.50;90.40
49579;DHT22;35483;50.828;3.228;2023-02-28T10:10:01;5.50;90.30
49579;DHT22;35483;50.828;3.228;2023-02-28T10:12:29;5.40;90.40
49579;DHT22;35483;50.828;3.228;2023-02-28T10:14:58;5.40;90.30
49579;DHT22;35483;50.828;3.228;2023-02-28T10:17:29;5.50;90.30
49579;DHT22;35483;50.828;3.228;2023-02-28T10:22:36;5.60;90.10
49579;DHT22;35483;50.828;3.228;2023-02-28T10:25:27;5.60;89.90
49579;DHT22;35483;50.828;3.228;2023-02-28T10:28:01;5.70;87.80
49579;DHT22;35483;50.828;3.228;2023-02-28T10:30:31;5.70;88.10
49579;DHT22;35483;50.828;3.228;2023-02-28T10:32:58;5.70;87.60
49579;DHT22;35483;50.828;3.228;2023-02-28T10:35:25;5.70;83.70
49579;DHT22;35483;50.828;3.228;2023-02-28T10:38:16;5.70;88.00
49579;DHT22;35483;50.828;3.228;2023-02-28T10:40:43;5.70;85.20
49579;DHT22;35483;50.828;3.228;2023-02-28T10:48:40;6.10;84.90
49579;DHT22;35483;50.828;3.228;2023-02-28T10:51:11;6.20;85.60
49579;DHT22;35483;50.828;3.228;2023-02-28T10:53:50;6.30;85.00
49579;DHT22;35483;50.828;3.228;2023-02-28T10:56:21;6.50;80.10
49579;DHT22;35483;50.828;3.228;2023-02-28T11:01:47;6.70;81.50
49579;DHT22;35483;50.828;3.228;2023-02-28T11:07:00;6.90;83.60
49579;DHT22;35483;50.828;3.228;2023-02-28T11:11:55;6.90;82.50
49579;DHT22;35483;50.828;3.228;2023-02-28T11:14:25;7.00;83.80
49579;DHT22;35483;50.828;3.228;2023-02-28T11:16:52;7.10;80.40
49579;DHT22;35483;50.828;3.228;2023-02-28T11:19:27;7.10;82.00
49579;DHT22;35483;50.828;3.228;2023-02-28T11:22:00;7.10;77.70
49579;DHT22;35483;50.828;3.228;2023-02-28T11:24:30;6.90;77.20
49579;DHT22;35483;50.828;3.228;2023-02-28T11:26:59;6.90;81.90
49579;DHT22;35483;50.828;3.228;2023-02-28T11:29:28;7.00;83.00
49579;DHT22;35483;50.828;3.228;2023-02-28T11:34:41;7.10;77.40
49579;DHT22;35483;50.828;3.228;2023-02-28T11:37:18;7.20;80.30
49579;DHT22;35483;50.828;3.228;2023-02-28T11:39:46;7.30;81.50
49579;DHT22;35483;50.828;3.228;2023-02-28T11:42:28;7.30;80.20
49579;DHT22;35483;50.828;3.228;2023-02-28T11:48:18;7.20;80.60
49579;DHT22;35483;50.828;3.228;2023-02-28T11:51:06;7.10;71.40
49579;DHT22;35483;50.828;3.228;2023-02-28T11:59:15;6.80;78.50
49579;DHT22;35483;50.828;3.228;2023-02-28T12:04:34;6.70;83.00
49579;DHT22;35483;50.828;3.228;2023-02-28T12:09:54;6.70;81.90
49579;DHT22;35483;50.828;3.228;2023-02-28T12:12:34;6.70;79.50
49579;DHT22;35483;50.828;3.228;2023-02-28T12:18:48;6.60;72.10
49579;DHT22;35483;50.828;3.228;2023-02-28T12:21:46;6.60;78.50
49579;DHT22;35483;50.828;3.228;2023-02-28T12:27:19;6.40;76.20
49579;DHT22;35483;50.828;3.228;2023-02-28T12:30:08;6.50;82.20
49579;DHT22;35483;50.828;3.228;2023-02-28T12:32:45;6.40;69.00
49579;DHT22;35483;50.828;3.228;2023-02-28T12:35:22;6.40;78.10
49579;DHT22;35483;50.828;3.228;2023-02-28T12:38:13;6.40;78.10
49579;DHT22;35483;50.828;3.228;2023-02-28T12:40:50;6.40;78.80
49579;DHT22;35483;50.828;3.228;2023-02-28T12:43:22;6.40;74.30
49579;DHT22;35483;50.828;3.228;2023-02-28T12:45:57;6.40;81.10
49579;DHT22;35483;50.828;3.228;2023-02-28T12:48:31;6.50;80.90
49579;DHT22;35483;50.828;3.228;2023-02-28T12:51:02;6.50;82.00
49579;DHT22;35483;50.828;3.228;2023-02-28T12:53:56;6.50;80.00
49579;DHT22;35483;50.828;3.228;2023-02-28T12:56:42;6.50;73.90
49579;DHT22;35483;50.828;3.228;2023-02-28T12:59:23;6.50;79.00
49579;DHT22;35483;50.828;3.228;2023-02-28T13:10:44;6.60;78.40
49579;DHT22;35483;50.828;3.228;2023-02-28T13:13:18;6.60;78.40
49579;DHT22;35483;50.828;3.228;2023-02-28T13:18:38;6.60;72.60
49579;DHT22;35483;50.828;3.228;2023-02-28T13:21:26;6.60;77.30
49579;DHT22;35483;50.828;3.228;2023-02-28T13:34:37;6.60;74.70
49579;DHT22;35483;50.828;3.228;2023-02-28T13:39:45;6.60;74.50
49579;DHT22;35483;50.828;3.228;2023-02-28T13:47:51;6.60;75.20
49579;DHT22;35483;50.828;3.228;2023-02-28T14:04:13;6.50;72.90
49579;DHT22;35483;50.828;3.228;2023-02-28T14:06:48;6.50;64.80
49579;DHT22;35483;50.828;3.228;2023-02-28T14:09:24;6.50;72.60
49579;DHT22;35483;50.828;3.228;2023-02-28T14:11:52;6.50;67.90
49579;DHT22;35483;50.828;3.228;2023-02-28T14:17:06;6.60;75.00
49579;DHT22;35483;50.828;3.228;2023-02-28T14:19:36;6.40;61.10
49579;DHT22;35483;50.828;3.228;2023-02-28T14:25:15;6.50;67.00
49579;DHT22;35483;50.828;3.228;2023-02-28T14:27:50;6.50;68.10
49579;DHT22;35483;50.828;3.228;2023-02-28T14:30:52;6.50;75.40
49579;DHT22;35483;50.828;3.228;2023-02-28T14:33:27;6.60;69.10
49579;DHT22;35483;50.828;3.228;2023-02-28T14:41:51;6.50;75.50
49579;DHT22;35483;50.828;3.228;2023-02-28T14:44:22;6.40;71.70
49579;DHT22;35483;50.828;3.228;2023-02-28T14:46:53;6.40;69.80
49579;DHT22;35483;50.828;3.228;2023-02-28T14:49:31;6.40;73.80
49579;DHT22;35483;50.828;3.228;2023-02-28T14:52:20;6.40;67.10
49579;DHT22;35483;50.828;3.228;2023-02-28T14:54:54;6.40;71.90
49579;DHT22;35483;50.828;3.228;2023-02-28T14:57:32;6.30;73.30
49579;DHT22;35483;50.828;3.228;2023-02-28T15:00:21;6.40;73.80
49579;DHT22;35483;50.828;3.228;2023-02-28T15:02:47;6.40;72.50
49579;DHT22;35483;50.828;3.228;2023-02-28T15:07:41;6.40;76.10
49579;DHT22;35483;50.828;3.228;2023-02-28T15:10:19;6.30;72.10
49579;DHT22;35483;50.828;3.228;2023-02-28T15:15:57;6.30;75.50
49579;DHT22;35483;50.828;3.228;2023-02-28T15:21:17;6.20;72.00
49579;DHT22;35483;50.828;3.228;2023-02-28T15:23:53;6.10;74.30
49579;DHT22;35483;50.828;3.228;2023-02-28T15:26:26;6.10;68.20
49579;DHT22;35483;50.828;3.228;2023-02-28T15:29:01;6.10;73.70
49579;DHT22;35483;50.828;3.228;2023-02-28T15:31:41;6.10;75.10
49579;DHT22;35483;50.828;3.228;2023-02-28T15:34:21;6.10;67.10
49579;DHT22;35483;50.828;3.228;2023-02-28T15:36:47;6.10;70.90
49579;DHT22;35483;50.828;3.228;2023-02-28T15:39:22;6.10;70.20
49579;DHT22;35483;50.828;3.228;2023-02-28T15:41:48;6.00;72.00
49579;DHT22;35483;50.828;3.228;2023-02-28T15:44:22;6.00;75.40
49579;DHT22;35483;50.828;3.228;2023-02-28T15:46:59;6.00;71.40
49579;DHT22;35483;50.828;3.228;2023-02-28T15:49:27;6.00;74.10
49579;DHT22;35483;50.828;3.228;2023-02-28T15:51:58;6.00;75.20
49579;DHT22;35483;50.828;3.228;2023-02-28T15:54:30;6.00;76.40
49579;DHT22;35483;50.828;3.228;2023-02-28T15:57:04;6.00;73.10
49579;DHT22;35483;50.828;3.228;2023-02-28T15:59:36;5.90;74.90
49579;DHT22;35483;50.828;3.228;2023-02-28T16:02:31;5.90;74.70
49579;DHT22;35483;50.828;3.228;2023-02-28T16:07:38;5.80;74.30
49579;DHT22;35483;50.828;3.228;2023-02-28T16:10:05;5.80;71.90
49579;DHT22;35483;50.828;3.228;2023-02-28T16:12:33;5.80;74.10
49579;DHT22;35483;50.828;3.228;2023-02-28T16:15:07;5.80;74.50
49579;DHT22;35483;50.828;3.228;2023-02-28T16:17:37;5.80;70.80
49579;DHT22;35483;50.828;3.228;2023-02-28T16:20:25;5.80;75.70
49579;DHT22;35483;50.828;3.228;2023-02-28T16:22:51;5.80;71.40
49579;DHT22;35483;50.828;3.228;2023-02-28T16:25:21;5.70;75.30
49579;DHT22;35483;50.828;3.228;2023-02-28T16:27:50;5.70;74.70
49579;DHT22;35483;50.828;3.228;2023-02-28T16:30:28;5.70;75.40
49579;DHT22;35483;50.828;3.228;2023-02-28T16:32:58;5.70;74.40
49579;DHT22;35483;50.828;3.228;2023-02-28T16:35:24;5.60;73.90
49579;DHT22;35483;50.828;3.228;2023-02-28T16:37:53;5.60;73.60
49579;DHT22;35483;50.828;3.228;2023-02-28T16:40:23;5.50;73.60
49579;DHT22;35483;50.828;3.228;2023-02-28T16:42:52;5.60;75.20
49579;DHT22;35483;50.828;3.228;2023-02-28T16:45:25;5.50;73.00
49579;DHT22;35483;50.828;3.228;2023-02-28T16:47:53;5.50;72.30
49579;DHT22;35483;50.828;3.228;2023-02-28T16:50:22;5.40;74.40
49579;DHT22;35483;50.828;3.228;2023-02-28T16:52:52;5.40;72.80
49579;DHT22;35483;50.828;3.228;2023-02-28T16:55:21;5.40;72.20
49579;DHT22;35483;50.828;3.228;2023-02-28T16:57:51;5.30;74.40
49579;DHT22;35483;50.828;3.228;2023-02-28T17:00:17;5.30;73.40
49579;DHT22;35483;50.828;3.228;2023-02-28T17:02:43;5.30;74.40
49579;DHT22;35483;50.828;3.228;2023-02-28T17:05:11;5.30;75.30
49579;DHT22;35483;50.828;3.228;2023-02-28T17:07:37;5.20;73.60
49579;DHT22;35483;50.828;3.228;2023-02-28T17:12:40;5.20;73.90
49579;DHT22;35483;50.828;3.228;2023-02-28T17:15:06;5.10;75.80
49579;DHT22;35483;50.828;3.228;2023-02-28T17:17:37;5.10;74.70
49579;DHT22;35483;50.828;3.228;2023-02-28T17:20:03;5.00;75.60
49579;DHT22;35483;50.828;3.228;2023-02-28T17:22:30;5.00;75.80
49579;DHT22;35483;50.828;3.228;2023-02-28T17:24:56;4.90;76.00
49579;DHT22;35483;50.828;3.228;2023-02-28T17:27:27;4.90;75.50
49579;DHT22;35483;50.828;3.228;2023-02-28T17:29:52;4.80;75.70
49579;DHT22;35483;50.828;3.228;2023-02-28T17:32:18;4.80;75.90
49579;DHT22;35483;50.828;3.228;2023-02-28T17:34:45;4.80;76.60
49579;DHT22;35483;50.828;3.228;2023-02-28T17:37:17;4.70;75.00
49579;DHT22;35483;50.828;3.228;2023-02-28T17:39:45;4.70;75.20
49579;DHT22;35483;50.828;3.228;2023-02-28T17:42:10;4.70;75.90
49579;DHT22;35483;50.828;3.228;2023-02-28T17:44:39;4.60;76.20
49579;DHT22;35483;50.828;3.228;2023-02-28T17:47:05;4.60;75.50
49579;DHT22;35483;50.828;3.228;2023-02-28T17:49:31;4.60;76.40
49579;DHT22;35483;50.828;3.228;2023-02-28T17:51:58;4.50;76.10
49579;DHT22;35483;50.828;3.228;2023-02-28T17:54:24;4.50;76.60
49579;DHT22;35483;50.828;3.228;2023-02-28T17:56:49;4.40;75.90
49579;DHT22;35483;50.828;3.228;2023-02-28T17:59:18;4.40;76.10
49579;DHT22;35483;50.828;3.228;2023-02-28T18:01:44;4.40;76.70
49579;DHT22;35483;50.828;3.228;2023-02-28T18:04:11;4.30;77.20
49579;DHT22;35483;50.828;3.228;2023-02-28T18:06:39;4.30;77.60
49579;DHT22;35483;50.828;3.228;2023-02-28T18:09:13;4.30;76.30
49579;DHT22;35483;50.828;3.228;2023-02-28T18:11:39;4.20;76.20
49579;DHT22;35483;50.828;3.228;2023-02-28T18:14:12;4.20;76.80
49579;DHT22;35483;50.828;3.228;2023-02-28T18:16:38;4.20;77.10
49579;DHT22;35483;50.828;3.228;2023-02-28T18:19:04;4.20;77.30
49579;DHT22;35483;50.828;3.228;2023-02-28T18:21:31;4.20;76.20
49579;DHT22;35483;50.828;3.228;2023-02-28T18:23:57;4.10;76.80
49579;DHT22;35483;50.828;3.228;2023-02-28T18:26:23;4.10;77.10
49579;DHT22;35483;50.828;3.228;2023-02-28T18:28:52;4.10;77.20
49579;DHT22;35483;50.828;3.228;2023-02-28T18:31:23;4.10;76.90
49579;DHT22;35483;50.828;3.228;2023-02-28T18:33:50;4.00;75.10
49579;DHT22;35483;50.828;3.228;2023-02-28T18:36:20;4.00;77.40
49579;DHT22;35483;50.828;3.228;2023-02-28T18:38:49;4.00;76.90
49579;DHT22;35483;50.828;3.228;2023-02-28T18:41:16;3.90;77.20
49579;DHT22;35483;50.828;3.228;2023-02-28T18:43:42;3.90;77.50
49579;DHT22;35483;50.828;3.228;2023-02-28T18:46:14;3.90;78.00